sensor_id;sensor_type;location;lat;lon;timestamp;P1;durP1;ratioP1;P2;durP2;ratioP2
62707;SDS011;48769;51.624;5.886;2023-01-29T00:00:47;62.05;;;32.08;;
62707;SDS011;48769;51.624;5.886;2023-01-29T00:03:12;65.53;;;31.10;;
62707;SDS011;48769;51.624;5.886;2023-01-29T00:05:37;62.10;;;30.92;;
62707;SDS011;48769;51.624;5.886;2023-01-29T00:08:03;64.43;;;31.02;;
62707;SDS011;48769;51.624;5.886;2023-01-29T00:10:28;63.50;;;31.42;;
62707;SDS011;48769;51.624;5.886;2023-01-29T00:12:53;64.82;;;31.63;;
62707;SDS011;48769;51.624;5.886;2023-01-29T00:15:19;59.03;;;28.75;;
62707;SDS011;48769;51.624;5.886;2023-01-29T00:17:44;62.67;;;30.65;;
62707;SDS011;48769;51.624;5.886;2023-01-29T00:20:10;60.85;;;30.75;;
62707;SDS011;48769;51.624;5.886;2023-01-29T00:22:35;61.95;;;29.48;;
62707;SDS011;48769;51.624;5.886;2023-01-29T00:25:01;64.30;;;30.25;;
62707;SDS011;48769;51.624;5.886;2023-01-29T00:27:26;61.15;;;30.13;;
62707;SDS011;48769;51.624;5.886;2023-01-29T00:29:51;58.85;;;30.52;;
62707;SDS011;48769;51.624;5.886;2023-01-29T00:32:35;64.03;;;30.42;;
62707;SDS011;48769;51.624;5.886;2023-01-29T00:35:01;60.47;;;29.75;;
62707;SDS011;48769;51.624;5.886;2023-01-29T00:37:26;62.22;;;31.60;;
62707;SDS011;48769;51.624;5.886;2023-01-29T00:39:52;65.43;;;30.55;;
62707;SDS011;48769;51.624;5.886;2023-01-29T00:42:17;63.03;;;29.85;;
62707;SDS011;48769;51.624;5.886;2023-01-29T00:45:01;62.83;;;30.70;;
62707;SDS011;48769;51.624;5.886;2023-01-29T00:47:26;61.30;;;30.75;;
62707;SDS011;48769;51.624;5.886;2023-01-29T00:49:55;62.15;;;30.90;;
62707;SDS011;48769;51.624;5.886;2023-01-29T00:52:20;59.92;;;29.52;;
62707;SDS011;48769;51.624;5.886;2023-01-29T00:54:48;61.10;;;30.33;;
62707;SDS011;48769;51.624;5.886;2023-01-29T00:57:14;63.05;;;31.48;;
62707;SDS011;48769;51.624;5.886;2023-01-29T00:59:40;59.05;;;29.08;;
62707;SDS011;48769;51.624;5.886;2023-01-29T01:02:05;53.42;;;27.58;;
62707;SDS011;48769;51.624;5.886;2023-01-29T01:04:49;61.75;;;30.35;;
62707;SDS011;48769;51.624;5.886;2023-01-29T01:07:14;61.45;;;29.63;;
62707;SDS011;48769;51.624;5.886;2023-01-29T01:09:40;63.40;;;29.17;;
62707;SDS011;48769;51.624;5.886;2023-01-29T01:12:23;59.33;;;29.30;;
62707;SDS011;48769;51.624;5.886;2023-01-29T01:14:49;57.00;;;28.40;;
62707;SDS011;48769;51.624;5.886;2023-01-29T01:17:14;64.78;;;30.00;;
62707;SDS011;48769;51.624;5.886;2023-01-29T01:19:40;62.15;;;30.35;;
62707;SDS011;48769;51.624;5.886;2023-01-29T01:22:05;59.97;;;27.67;;
62707;SDS011;48769;51.624;5.886;2023-01-29T01:24:30;60.30;;;29.92;;
62707;SDS011;48769;51.624;5.886;2023-01-29T01:26:57;65.00;;;29.90;;
62707;SDS011;48769;51.624;5.886;2023-01-29T01:29:22;65.35;;;31.70;;
62707;SDS011;48769;51.624;5.886;2023-01-29T01:31:48;69.32;;;31.65;;
62707;SDS011;48769;51.624;5.886;2023-01-29T01:34:14;66.72;;;29.80;;
62707;SDS011;48769;51.624;5.886;2023-01-29T01:36:39;62.53;;;30.45;;
62707;SDS011;48769;51.624;5.886;2023-01-29T01:39:04;68.07;;;31.17;;
62707;SDS011;48769;51.624;5.886;2023-01-29T01:41:30;59.65;;;29.42;;
62707;SDS011;48769;51.624;5.886;2023-01-29T01:43:59;64.35;;;30.15;;
62707;SDS011;48769;51.624;5.886;2023-01-29T01:46:29;59.85;;;28.75;;
62707;SDS011;48769;51.624;5.886;2023-01-29T01:49:17;57.03;;;27.25;;
62707;SDS011;48769;51.624;5.886;2023-01-29T01:51:44;58.75;;;27.70;;
62707;SDS011;48769;51.624;5.886;2023-01-29T01:54:13;60.58;;;27.48;;
62707;SDS011;48769;51.624;5.886;2023-01-29T01:56:45;63.35;;;29.95;;
62707;SDS011;48769;51.624;5.886;2023-01-29T01:59:16;58.15;;;28.27;;
62707;SDS011;48769;51.624;5.886;2023-01-29T02:01:44;64.22;;;30.35;;
62707;SDS011;48769;51.624;5.886;2023-01-29T02:04:15;64.47;;;31.70;;
62707;SDS011;48769;51.624;5.886;2023-01-29T02:07:03;61.45;;;28.65;;
62707;SDS011;48769;51.624;5.886;2023-01-29T02:09:51;67.50;;;30.05;;
62707;SDS011;48769;51.624;5.886;2023-01-29T02:12:21;58.63;;;29.25;;
62707;SDS011;48769;51.624;5.886;2023-01-29T02:14:47;60.40;;;29.30;;
62707;SDS011;48769;51.624;5.886;2023-01-29T02:17:13;60.90;;;29.17;;
62707;SDS011;48769;51.624;5.886;2023-01-29T02:19:42;63.85;;;29.20;;
62707;SDS011;48769;51.624;5.886;2023-01-29T02:28:05;65.13;;;30.25;;
62707;SDS011;48769;51.624;5.886;2023-01-29T02:31:07;64.10;;;30.70;;
62707;SDS011;48769;51.624;5.886;2023-01-29T02:33:39;61.17;;;29.13;;
62707;SDS011;48769;51.624;5.886;2023-01-29T02:39:09;58.80;;;28.95;;
62707;SDS011;48769;51.624;5.886;2023-01-29T02:41:43;67.15;;;31.05;;
62707;SDS011;48769;51.624;5.886;2023-01-29T02:44:22;62.95;;;28.58;;
62707;SDS011;48769;51.624;5.886;2023-01-29T02:49:42;54.58;;;28.88;;
62707;SDS011;48769;51.624;5.886;2023-01-29T02:52:27;63.25;;;28.45;;
62707;SDS011;48769;51.624;5.886;2023-01-29T02:55:11;61.60;;;30.48;;
62707;SDS011;48769;51.624;5.886;2023-01-29T02:57:42;62.85;;;30.38;;
62707;SDS011;48769;51.624;5.886;2023-01-29T03:00:20;62.88;;;30.92;;
62707;SDS011;48769;51.624;5.886;2023-01-29T03:03:02;65.60;;;31.30;;
62707;SDS011;48769;51.624;5.886;2023-01-29T03:05:42;60.30;;;29.48;;
62707;SDS011;48769;51.624;5.886;2023-01-29T03:08:17;63.33;;;31.55;;
62707;SDS011;48769;51.624;5.886;2023-01-29T03:11:00;62.65;;;30.52;;
62707;SDS011;48769;51.624;5.886;2023-01-29T03:16:06;67.97;;;32.17;;
62707;SDS011;48769;51.624;5.886;2023-01-29T03:18:39;65.55;;;31.42;;
62707;SDS011;48769;51.624;5.886;2023-01-29T03:21:11;69.00;;;31.93;;
62707;SDS011;48769;51.624;5.886;2023-01-29T03:24:05;70.07;;;32.60;;
62707;SDS011;48769;51.624;5.886;2023-01-29T03:26:53;71.65;;;33.58;;
62707;SDS011;48769;51.624;5.886;2023-01-29T03:29:37;69.07;;;34.15;;
62707;SDS011;48769;51.624;5.886;2023-01-29T03:32:22;74.50;;;33.35;;
62707;SDS011;48769;51.624;5.886;2023-01-29T03:34:52;67.03;;;33.50;;
62707;SDS011;48769;51.624;5.886;2023-01-29T03:37:29;68.25;;;33.83;;
62707;SDS011;48769;51.624;5.886;2023-01-29T03:40:14;73.72;;;34.50;;
62707;SDS011;48769;51.624;5.886;2023-01-29T03:45:33;75.88;;;36.33;;
62707;SDS011;48769;51.624;5.886;2023-01-29T03:48:26;77.88;;;34.85;;
62707;SDS011;48769;51.624;5.886;2023-01-29T03:51:24;69.47;;;34.58;;
62707;SDS011;48769;51.624;5.886;2023-01-29T03:54:15;74.07;;;35.33;;
62707;SDS011;48769;51.624;5.886;2023-01-29T03:57:11;73.50;;;33.70;;
62707;SDS011;48769;51.624;5.886;2023-01-29T04:02:27;71.07;;;35.55;;
62707;SDS011;48769;51.624;5.886;2023-01-29T04:04:58;75.45;;;35.83;;
62707;SDS011;48769;51.624;5.886;2023-01-29T04:07:29;75.43;;;37.35;;
62707;SDS011;48769;51.624;5.886;2023-01-29T04:10:03;71.15;;;36.33;;
62707;SDS011;48769;51.624;5.886;2023-01-29T04:12:35;73.50;;;36.53;;
62707;SDS011;48769;51.624;5.886;2023-01-29T04:15:05;69.38;;;33.97;;
62707;SDS011;48769;51.624;5.886;2023-01-29T04:17:38;76.72;;;37.50;;
62707;SDS011;48769;51.624;5.886;2023-01-29T04:20:07;75.60;;;37.13;;
62707;SDS011;48769;51.624;5.886;2023-01-29T04:22:34;78.38;;;35.28;;
62707;SDS011;48769;51.624;5.886;2023-01-29T04:25:03;75.47;;;36.08;;
62707;SDS011;48769;51.624;5.886;2023-01-29T04:27:42;69.93;;;34.83;;
62707;SDS011;48769;51.624;5.886;2023-01-29T04:30:33;70.72;;;35.10;;
62707;SDS011;48769;51.624;5.886;2023-01-29T04:44:49;86.30;;;35.40;;
62707;SDS011;48769;51.624;5.886;2023-01-29T04:47:30;68.30;;;34.28;;
62707;SDS011;48769;51.624;5.886;2023-01-29T04:52:55;66.72;;;34.92;;
62707;SDS011;48769;51.624;5.886;2023-01-29T04:58:13;66.50;;;33.25;;
62707;SDS011;48769;51.624;5.886;2023-01-29T05:00:43;63.10;;;32.08;;
62707;SDS011;48769;51.624;5.886;2023-01-29T05:03:13;70.30;;;34.42;;
62707;SDS011;48769;51.624;5.886;2023-01-29T05:05:40;62.78;;;31.88;;
62707;SDS011;48769;51.624;5.886;2023-01-29T05:08:08;65.85;;;32.63;;
62707;SDS011;48769;51.624;5.886;2023-01-29T05:10:37;66.18;;;31.75;;
62707;SDS011;48769;51.624;5.886;2023-01-29T05:13:03;69.22;;;32.55;;
62707;SDS011;48769;51.624;5.886;2023-01-29T05:15:36;69.28;;;33.17;;
62707;SDS011;48769;51.624;5.886;2023-01-29T05:18:04;65.97;;;31.70;;
62707;SDS011;48769;51.624;5.886;2023-01-29T05:20:32;66.18;;;32.78;;
62707;SDS011;48769;51.624;5.886;2023-01-29T05:23:00;64.15;;;33.28;;
62707;SDS011;48769;51.624;5.886;2023-01-29T05:25:29;62.03;;;31.35;;
62707;SDS011;48769;51.624;5.886;2023-01-29T05:27:57;64.13;;;31.58;;
62707;SDS011;48769;51.624;5.886;2023-01-29T05:30:29;64.40;;;31.67;;
62707;SDS011;48769;51.624;5.886;2023-01-29T05:32:55;67.30;;;32.33;;
62707;SDS011;48769;51.624;5.886;2023-01-29T05:35:20;65.95;;;32.17;;
62707;SDS011;48769;51.624;5.886;2023-01-29T05:37:46;63.35;;;31.88;;
62707;SDS011;48769;51.624;5.886;2023-01-29T05:40:11;65.28;;;31.55;;
62707;SDS011;48769;51.624;5.886;2023-01-29T05:42:36;65.63;;;30.73;;
62707;SDS011;48769;51.624;5.886;2023-01-29T05:45:02;63.47;;;30.77;;
62707;SDS011;48769;51.624;5.886;2023-01-29T05:47:27;60.05;;;30.48;;
62707;SDS011;48769;51.624;5.886;2023-01-29T05:49:53;61.92;;;30.95;;
62707;SDS011;48769;51.624;5.886;2023-01-29T05:52:18;65.03;;;31.98;;
62707;SDS011;48769;51.624;5.886;2023-01-29T05:54:43;66.07;;;33.05;;
62707;SDS011;48769;51.624;5.886;2023-01-29T05:57:08;61.88;;;30.70;;
62707;SDS011;48769;51.624;5.886;2023-01-29T05:59:34;59.90;;;31.42;;
62707;SDS011;48769;51.624;5.886;2023-01-29T06:01:59;69.30;;;34.13;;
62707;SDS011;48769;51.624;5.886;2023-01-29T06:04:24;63.13;;;31.40;;
62707;SDS011;48769;51.624;5.886;2023-01-29T06:06:50;62.65;;;31.45;;
62707;SDS011;48769;51.624;5.886;2023-01-29T06:09:15;70.68;;;33.75;;
62707;SDS011;48769;51.624;5.886;2023-01-29T06:11:40;63.50;;;30.73;;
62707;SDS011;48769;51.624;5.886;2023-01-29T06:14:06;62.40;;;32.25;;
62707;SDS011;48769;51.624;5.886;2023-01-29T06:16:31;65.10;;;33.00;;
62707;SDS011;48769;51.624;5.886;2023-01-29T06:18:56;64.97;;;33.10;;
62707;SDS011;48769;51.624;5.886;2023-01-29T06:21:22;67.18;;;31.75;;
62707;SDS011;48769;51.624;5.886;2023-01-29T06:23:47;68.10;;;32.83;;
62707;SDS011;48769;51.624;5.886;2023-01-29T06:26:13;66.22;;;32.70;;
62707;SDS011;48769;51.624;5.886;2023-01-29T06:28:39;75.90;;;33.42;;
62707;SDS011;48769;51.624;5.886;2023-01-29T06:31:05;70.07;;;33.75;;
62707;SDS011;48769;51.624;5.886;2023-01-29T06:33:32;64.35;;;32.45;;
62707;SDS011;48769;51.624;5.886;2023-01-29T06:36:01;69.00;;;32.40;;
62707;SDS011;48769;51.624;5.886;2023-01-29T06:38:28;64.40;;;32.92;;
62707;SDS011;48769;51.624;5.886;2023-01-29T06:40:55;70.20;;;35.25;;
62707;SDS011;48769;51.624;5.886;2023-01-29T06:43:21;73.45;;;35.42;;
62707;SDS011;48769;51.624;5.886;2023-01-29T06:45:51;71.65;;;34.38;;
62707;SDS011;48769;51.624;5.886;2023-01-29T06:48:18;74.88;;;34.97;;
62707;SDS011;48769;51.624;5.886;2023-01-29T06:50:43;69.60;;;34.20;;
62707;SDS011;48769;51.624;5.886;2023-01-29T06:53:09;69.13;;;35.03;;
62707;SDS011;48769;51.624;5.886;2023-01-29T06:55:35;68.65;;;34.53;;
62707;SDS011;48769;51.624;5.886;2023-01-29T06:58:03;73.60;;;35.45;;
62707;SDS011;48769;51.624;5.886;2023-01-29T07:00:33;70.53;;;34.63;;
62707;SDS011;48769;51.624;5.886;2023-01-29T07:02:59;62.95;;;34.08;;
62707;SDS011;48769;51.624;5.886;2023-01-29T07:05:24;74.80;;;36.83;;
62707;SDS011;48769;51.624;5.886;2023-01-29T07:07:49;67.53;;;34.60;;
62707;SDS011;48769;51.624;5.886;2023-01-29T07:10:15;73.72;;;36.00;;
62707;SDS011;48769;51.624;5.886;2023-01-29T07:12:40;69.60;;;34.10;;
62707;SDS011;48769;51.624;5.886;2023-01-29T07:15:05;69.75;;;34.58;;
62707;SDS011;48769;51.624;5.886;2023-01-29T07:17:31;76.78;;;36.13;;
62707;SDS011;48769;51.624;5.886;2023-01-29T07:19:56;74.93;;;36.58;;
62707;SDS011;48769;51.624;5.886;2023-01-29T07:22:22;78.10;;;38.03;;
62707;SDS011;48769;51.624;5.886;2023-01-29T07:24:47;74.70;;;37.33;;
62707;SDS011;48769;51.624;5.886;2023-01-29T07:27:12;68.90;;;34.03;;
62707;SDS011;48769;51.624;5.886;2023-01-29T07:29:37;73.85;;;35.80;;
62707;SDS011;48769;51.624;5.886;2023-01-29T07:32:03;73.93;;;35.97;;
62707;SDS011;48769;51.624;5.886;2023-01-29T07:34:28;72.65;;;35.80;;
62707;SDS011;48769;51.624;5.886;2023-01-29T07:36:54;71.22;;;36.25;;
62707;SDS011;48769;51.624;5.886;2023-01-29T07:39:20;77.72;;;37.58;;
62707;SDS011;48769;51.624;5.886;2023-01-29T07:41:46;68.28;;;34.00;;
62707;SDS011;48769;51.624;5.886;2023-01-29T07:44:12;74.25;;;35.85;;
62707;SDS011;48769;51.624;5.886;2023-01-29T07:46:37;71.20;;;36.83;;
62707;SDS011;48769;51.624;5.886;2023-01-29T07:49:02;75.03;;;36.60;;
62707;SDS011;48769;51.624;5.886;2023-01-29T07:51:28;70.32;;;34.20;;
62707;SDS011;48769;51.624;5.886;2023-01-29T07:53:53;70.60;;;35.42;;
62707;SDS011;48769;51.624;5.886;2023-01-29T07:56:18;69.72;;;35.78;;
62707;SDS011;48769;51.624;5.886;2023-01-29T07:58:44;70.80;;;34.38;;
62707;SDS011;48769;51.624;5.886;2023-01-29T08:01:09;70.72;;;36.30;;
62707;SDS011;48769;51.624;5.886;2023-01-29T08:03:34;68.95;;;34.30;;
62707;SDS011;48769;51.624;5.886;2023-01-29T08:06:01;74.07;;;33.47;;
62707;SDS011;48769;51.624;5.886;2023-01-29T08:08:27;73.45;;;36.22;;
62707;SDS011;48769;51.624;5.886;2023-01-29T08:10:53;76.55;;;36.47;;
62707;SDS011;48769;51.624;5.886;2023-01-29T08:13:18;68.30;;;34.00;;
62707;SDS011;48769;51.624;5.886;2023-01-29T08:15:43;69.68;;;34.25;;
62707;SDS011;48769;51.624;5.886;2023-01-29T08:18:09;77.00;;;36.83;;
62707;SDS011;48769;51.624;5.886;2023-01-29T08:20:35;73.20;;;37.50;;
62707;SDS011;48769;51.624;5.886;2023-01-29T08:23:01;72.30;;;35.20;;
62707;SDS011;48769;51.624;5.886;2023-01-29T08:25:30;72.82;;;36.10;;
62707;SDS011;48769;51.624;5.886;2023-01-29T08:27:56;76.55;;;37.03;;
62707;SDS011;48769;51.624;5.886;2023-01-29T08:30:22;73.40;;;35.85;;
62707;SDS011;48769;51.624;5.886;2023-01-29T08:32:49;69.97;;;34.63;;
62707;SDS011;48769;51.624;5.886;2023-01-29T08:35:14;76.45;;;36.17;;
62707;SDS011;48769;51.624;5.886;2023-01-29T08:37:39;72.72;;;36.40;;
62707;SDS011;48769;51.624;5.886;2023-01-29T08:40:05;63.90;;;32.65;;
62707;SDS011;48769;51.624;5.886;2023-01-29T08:42:33;73.00;;;35.05;;
62707;SDS011;48769;51.624;5.886;2023-01-29T08:44:58;73.18;;;34.92;;
62707;SDS011;48769;51.624;5.886;2023-01-29T08:47:23;68.85;;;34.28;;
62707;SDS011;48769;51.624;5.886;2023-01-29T08:49:49;66.88;;;33.38;;
62707;SDS011;48769;51.624;5.886;2023-01-29T08:52:14;72.10;;;36.05;;
62707;SDS011;48769;51.624;5.886;2023-01-29T08:54:39;71.38;;;34.45;;
62707;SDS011;48769;51.624;5.886;2023-01-29T08:57:05;68.15;;;34.58;;
62707;SDS011;48769;51.624;5.886;2023-01-29T08:59:30;70.15;;;35.58;;
62707;SDS011;48769;51.624;5.886;2023-01-29T09:01:55;72.28;;;36.60;;
62707;SDS011;48769;51.624;5.886;2023-01-29T09:04:21;74.60;;;36.70;;
62707;SDS011;48769;51.624;5.886;2023-01-29T09:06:46;76.70;;;36.22;;
62707;SDS011;48769;51.624;5.886;2023-01-29T09:09:11;67.90;;;36.35;;
62707;SDS011;48769;51.624;5.886;2023-01-29T09:11:38;71.35;;;36.33;;
62707;SDS011;48769;51.624;5.886;2023-01-29T09:14:04;67.60;;;36.28;;
62707;SDS011;48769;51.624;5.886;2023-01-29T09:16:30;70.63;;;36.63;;
62707;SDS011;48769;51.624;5.886;2023-01-29T09:18:55;70.30;;;35.40;;
62707;SDS011;48769;51.624;5.886;2023-01-29T09:21:20;66.45;;;34.63;;
62707;SDS011;48769;51.624;5.886;2023-01-29T09:23:46;68.93;;;35.97;;
62707;SDS011;48769;51.624;5.886;2023-01-29T09:26:11;74.43;;;36.00;;
62707;SDS011;48769;51.624;5.886;2023-01-29T09:28:37;71.55;;;36.00;;
62707;SDS011;48769;51.624;5.886;2023-01-29T09:31:02;71.43;;;36.60;;
62707;SDS011;48769;51.624;5.886;2023-01-29T09:33:28;68.32;;;35.85;;
62707;SDS011;48769;51.624;5.886;2023-01-29T09:35:53;71.82;;;36.03;;
62707;SDS011;48769;51.624;5.886;2023-01-29T09:38:18;68.30;;;35.58;;
62707;SDS011;48769;51.624;5.886;2023-01-29T09:43:50;68.53;;;35.03;;
62707;SDS011;48769;51.624;5.886;2023-01-29T09:49:09;68.03;;;35.33;;
62707;SDS011;48769;51.624;5.886;2023-01-29T09:51:40;81.22;;;38.45;;
62707;SDS011;48769;51.624;5.886;2023-01-29T09:54:22;71.75;;;35.28;;
62707;SDS011;48769;51.624;5.886;2023-01-29T09:56:54;64.28;;;33.80;;
62707;SDS011;48769;51.624;5.886;2023-01-29T09:59:23;67.63;;;34.60;;
62707;SDS011;48769;51.624;5.886;2023-01-29T10:01:57;69.30;;;35.33;;
62707;SDS011;48769;51.624;5.886;2023-01-29T10:07:42;67.95;;;34.92;;
62707;SDS011;48769;51.624;5.886;2023-01-29T10:15:51;64.90;;;33.63;;
62707;SDS011;48769;51.624;5.886;2023-01-29T10:18:37;57.67;;;32.08;;
62707;SDS011;48769;51.624;5.886;2023-01-29T10:24:06;65.45;;;33.40;;
62707;SDS011;48769;51.624;5.886;2023-01-29T10:26:55;64.30;;;32.17;;
62707;SDS011;48769;51.624;5.886;2023-01-29T10:29:22;65.40;;;32.53;;
62707;SDS011;48769;51.624;5.886;2023-01-29T10:31:57;66.28;;;32.35;;
62707;SDS011;48769;51.624;5.886;2023-01-29T10:34:30;62.80;;;32.80;;
62707;SDS011;48769;51.624;5.886;2023-01-29T10:37:00;68.38;;;33.17;;
62707;SDS011;48769;51.624;5.886;2023-01-29T10:39:39;63.80;;;34.20;;
62707;SDS011;48769;51.624;5.886;2023-01-29T10:50:51;59.30;;;32.65;;
62707;SDS011;48769;51.624;5.886;2023-01-29T11:01:23;56.45;;;31.05;;
62707;SDS011;48769;51.624;5.886;2023-01-29T11:04:03;54.83;;;30.48;;
62707;SDS011;48769;51.624;5.886;2023-01-29T11:06:31;54.90;;;30.75;;
62707;SDS011;48769;51.624;5.886;2023-01-29T11:12:09;52.60;;;29.73;;
62707;SDS011;48769;51.624;5.886;2023-01-29T11:14:41;58.90;;;30.38;;
62707;SDS011;48769;51.624;5.886;2023-01-29T11:17:13;52.35;;;29.73;;
62707;SDS011;48769;51.624;5.886;2023-01-29T11:19:41;53.08;;;28.80;;
62707;SDS011;48769;51.624;5.886;2023-01-29T11:22:27;54.22;;;30.27;;
62707;SDS011;48769;51.624;5.886;2023-01-29T11:27:37;55.00;;;29.65;;
62707;SDS011;48769;51.624;5.886;2023-01-29T11:30:32;55.05;;;29.52;;
62707;SDS011;48769;51.624;5.886;2023-01-29T11:35:29;51.28;;;28.90;;
62707;SDS011;48769;51.624;5.886;2023-01-29T11:38:07;56.63;;;30.08;;
62707;SDS011;48769;51.624;5.886;2023-01-29T11:40:39;52.92;;;29.90;;
62707;SDS011;48769;51.624;5.886;2023-01-29T11:45:47;51.03;;;29.42;;
62707;SDS011;48769;51.624;5.886;2023-01-29T11:48:16;53.35;;;30.02;;
62707;SDS011;48769;51.624;5.886;2023-01-29T11:50:43;54.55;;;30.38;;
62707;SDS011;48769;51.624;5.886;2023-01-29T11:53:26;49.28;;;28.25;;
62707;SDS011;48769;51.624;5.886;2023-01-29T11:56:01;50.15;;;29.00;;
62707;SDS011;48769;51.624;5.886;2023-01-29T11:58:30;49.58;;;28.80;;
62707;SDS011;48769;51.624;5.886;2023-01-29T12:00:58;56.80;;;30.70;;
62707;SDS011;48769;51.624;5.886;2023-01-29T12:03:32;51.30;;;28.85;;
62707;SDS011;48769;51.624;5.886;2023-01-29T12:06:20;47.15;;;27.92;;
62707;SDS011;48769;51.624;5.886;2023-01-29T12:08:53;48.92;;;27.95;;
62707;SDS011;48769;51.624;5.886;2023-01-29T12:11:33;47.78;;;26.70;;
62707;SDS011;48769;51.624;5.886;2023-01-29T12:14:00;48.28;;;26.95;;
62707;SDS011;48769;51.624;5.886;2023-01-29T12:16:38;44.33;;;26.48;;
62707;SDS011;48769;51.624;5.886;2023-01-29T12:19:51;49.55;;;27.67;;
62707;SDS011;48769;51.624;5.886;2023-01-29T12:22:37;49.20;;;25.63;;
62707;SDS011;48769;51.624;5.886;2023-01-29T12:25:23;47.55;;;27.23;;
62707;SDS011;48769;51.624;5.886;2023-01-29T12:28:00;45.22;;;26.30;;
62707;SDS011;48769;51.624;5.886;2023-01-29T12:30:37;43.92;;;26.60;;
62707;SDS011;48769;51.624;5.886;2023-01-29T12:33:32;44.28;;;26.90;;
62707;SDS011;48769;51.624;5.886;2023-01-29T12:36:08;46.80;;;27.63;;
62707;SDS011;48769;51.624;5.886;2023-01-29T12:38:42;47.78;;;26.92;;
62707;SDS011;48769;51.624;5.886;2023-01-29T12:43:57;45.78;;;26.77;;
62707;SDS011;48769;51.624;5.886;2023-01-29T12:46:36;46.00;;;26.98;;
62707;SDS011;48769;51.624;5.886;2023-01-29T12:49:08;50.22;;;28.42;;
62707;SDS011;48769;51.624;5.886;2023-01-29T12:51:43;45.15;;;27.48;;
62707;SDS011;48769;51.624;5.886;2023-01-29T12:54:18;47.08;;;28.98;;
62707;SDS011;48769;51.624;5.886;2023-01-29T12:56:51;47.90;;;27.05;;
62707;SDS011;48769;51.624;5.886;2023-01-29T13:04:54;47.05;;;28.65;;
62707;SDS011;48769;51.624;5.886;2023-01-29T13:07:26;48.55;;;29.73;;
62707;SDS011;48769;51.624;5.886;2023-01-29T13:10:14;45.03;;;28.38;;
62707;SDS011;48769;51.624;5.886;2023-01-29T13:12:53;47.60;;;27.65;;
62707;SDS011;48769;51.624;5.886;2023-01-29T13:17:53;46.03;;;28.08;;
62707;SDS011;48769;51.624;5.886;2023-01-29T13:22:51;45.30;;;28.38;;
62707;SDS011;48769;51.624;5.886;2023-01-29T13:25:19;50.42;;;29.52;;
62707;SDS011;48769;51.624;5.886;2023-01-29T13:27:45;49.35;;;28.85;;
62707;SDS011;48769;51.624;5.886;2023-01-29T13:30:30;52.00;;;30.48;;
62707;SDS011;48769;51.624;5.886;2023-01-29T13:32:59;45.22;;;28.15;;
62707;SDS011;48769;51.624;5.886;2023-01-29T13:35:39;48.47;;;27.60;;
62707;SDS011;48769;51.624;5.886;2023-01-29T13:38:18;47.40;;;29.17;;
62707;SDS011;48769;51.624;5.886;2023-01-29T13:40:48;46.15;;;28.55;;
62707;SDS011;48769;51.624;5.886;2023-01-29T13:43:19;47.25;;;29.58;;
62707;SDS011;48769;51.624;5.886;2023-01-29T13:45:47;45.17;;;28.52;;
62707;SDS011;48769;51.624;5.886;2023-01-29T13:50:44;48.80;;;29.17;;
62707;SDS011;48769;51.624;5.886;2023-01-29T13:53:19;49.78;;;29.83;;
62707;SDS011;48769;51.624;5.886;2023-01-29T13:55:48;51.33;;;30.67;;
62707;SDS011;48769;51.624;5.886;2023-01-29T13:58:55;49.95;;;30.95;;
62707;SDS011;48769;51.624;5.886;2023-01-29T14:01:07;50.95;;;29.80;;
62707;SDS011;48769;51.624;5.886;2023-01-29T14:03:40;55.03;;;31.15;;
62707;SDS011;48769;51.624;5.886;2023-01-29T14:06:07;47.17;;;29.30;;
62707;SDS011;48769;51.624;5.886;2023-01-29T14:08:44;49.15;;;30.27;;
62707;SDS011;48769;51.624;5.886;2023-01-29T14:13:36;54.38;;;32.30;;
62707;SDS011;48769;51.624;5.886;2023-01-29T14:18:28;51.15;;;30.42;;
62707;SDS011;48769;51.624;5.886;2023-01-29T14:21:04;55.85;;;33.05;;
62707;SDS011;48769;51.624;5.886;2023-01-29T14:26:00;59.17;;;33.40;;
62707;SDS011;48769;51.624;5.886;2023-01-29T14:28:29;56.45;;;32.50;;
62707;SDS011;48769;51.624;5.886;2023-01-29T14:30:56;55.67;;;32.08;;
62707;SDS011;48769;51.624;5.886;2023-01-29T14:35:50;57.10;;;32.30;;
62707;SDS011;48769;51.624;5.886;2023-01-29T14:38:16;57.53;;;32.38;;
62707;SDS011;48769;51.624;5.886;2023-01-29T14:40:43;52.47;;;30.23;;
62707;SDS011;48769;51.624;5.886;2023-01-29T14:43:18;56.20;;;32.88;;
62707;SDS011;48769;51.624;5.886;2023-01-29T14:45:45;61.70;;;33.35;;
62707;SDS011;48769;51.624;5.886;2023-01-29T14:51:06;57.15;;;32.13;;
62707;SDS011;48769;51.624;5.886;2023-01-29T14:56:35;52.40;;;31.05;;
62707;SDS011;48769;51.624;5.886;2023-01-29T14:59:13;54.08;;;32.03;;
62707;SDS011;48769;51.624;5.886;2023-01-29T15:01:47;55.20;;;31.55;;
62707;SDS011;48769;51.624;5.886;2023-01-29T15:04:28;58.95;;;33.47;;
62707;SDS011;48769;51.624;5.886;2023-01-29T15:07:26;55.78;;;30.90;;
62707;SDS011;48769;51.624;5.886;2023-01-29T15:12:47;61.83;;;33.90;;
62707;SDS011;48769;51.624;5.886;2023-01-29T15:15:26;60.42;;;32.42;;
62707;SDS011;48769;51.624;5.886;2023-01-29T15:18:07;56.13;;;32.78;;
62707;SDS011;48769;51.624;5.886;2023-01-29T15:20:38;62.22;;;33.42;;
62707;SDS011;48769;51.624;5.886;2023-01-29T15:25:49;55.75;;;31.60;;
62707;SDS011;48769;51.624;5.886;2023-01-29T15:28:18;52.42;;;30.92;;
62707;SDS011;48769;51.624;5.886;2023-01-29T15:30:44;56.83;;;32.25;;
62707;SDS011;48769;51.624;5.886;2023-01-29T15:33:09;62.55;;;34.83;;
62707;SDS011;48769;51.624;5.886;2023-01-29T15:35:41;64.13;;;32.72;;
62707;SDS011;48769;51.624;5.886;2023-01-29T15:40:39;58.13;;;32.65;;
62707;SDS011;48769;51.624;5.886;2023-01-29T15:43:20;57.53;;;32.20;;
62707;SDS011;48769;51.624;5.886;2023-01-29T15:46:09;65.32;;;33.53;;
62707;SDS011;48769;51.624;5.886;2023-01-29T15:48:48;66.18;;;33.35;;
62707;SDS011;48769;51.624;5.886;2023-01-29T15:51:15;59.25;;;33.47;;
62707;SDS011;48769;51.624;5.886;2023-01-29T15:53:44;57.22;;;32.30;;
62707;SDS011;48769;51.624;5.886;2023-01-29T15:56:23;60.88;;;32.55;;
62707;SDS011;48769;51.624;5.886;2023-01-29T15:58:52;56.50;;;32.38;;
62707;SDS011;48769;51.624;5.886;2023-01-29T16:01:19;57.88;;;33.53;;
62707;SDS011;48769;51.624;5.886;2023-01-29T16:03:45;55.65;;;31.17;;
62707;SDS011;48769;51.624;5.886;2023-01-29T16:06:13;56.85;;;31.88;;
62707;SDS011;48769;51.624;5.886;2023-01-29T16:08:47;58.75;;;32.78;;
62707;SDS011;48769;51.624;5.886;2023-01-29T16:11:15;61.85;;;34.88;;
62707;SDS011;48769;51.624;5.886;2023-01-29T16:13:47;53.70;;;32.42;;
62707;SDS011;48769;51.624;5.886;2023-01-29T16:18:39;58.88;;;32.53;;
62707;SDS011;48769;51.624;5.886;2023-01-29T16:21:08;60.88;;;31.80;;
62707;SDS011;48769;51.624;5.886;2023-01-29T16:23:43;62.22;;;32.80;;
62707;SDS011;48769;51.624;5.886;2023-01-29T16:28:43;61.83;;;33.17;;
62707;SDS011;48769;51.624;5.886;2023-01-29T16:31:10;61.78;;;32.95;;
62707;SDS011;48769;51.624;5.886;2023-01-29T16:33:38;58.78;;;33.15;;
62707;SDS011;48769;51.624;5.886;2023-01-29T16:36:08;56.83;;;32.47;;
62707;SDS011;48769;51.624;5.886;2023-01-29T16:38:40;57.10;;;32.13;;
62707;SDS011;48769;51.624;5.886;2023-01-29T16:46:15;64.75;;;32.63;;
62707;SDS011;48769;51.624;5.886;2023-01-29T16:48:48;65.85;;;32.13;;
62707;SDS011;48769;51.624;5.886;2023-01-29T16:51:19;63.53;;;32.78;;
62707;SDS011;48769;51.624;5.886;2023-01-29T16:53:52;60.60;;;33.53;;